Reid Mcallister — WDE6394 — position and weather

sailwx.info

Track history (hours):
 
Tides and Currents Weather Stations Pressure Air Temp Water Temp Dewpoint Dewpoint Depression Visibility Wind Speed Wind Dir Waves Ship Positions

Reid Mcallister

Owner: McAllister Brothers, LLC, Staten Island, NY. More information available from US FCC via Universal Licensing System and Coast Guard Vessel Documentation Center.

Last reported at 2017-Nov-19 10:00 UTC. Time now 2017-Nov-19 10:21 UTC.
Position N 39°54' W 075°08'.

Length 24 m; draft 3.1 m.

Type: Other ship. MMSI: 367379670.

Date/timePositionNaut miles runAvg speedWind from/ knotsBaromVisibWave heightAir tempDewpointWater temp
2017-Nov-19 10:00N 39°54' W 075°08'0 0.0
2017-Nov-19 09:30N 39°54' W 075°08'0 0.0
2017-Nov-19 09:01N 39°54' W 075°08'0 0.0
2017-Nov-19 08:30N 39°54' W 075°08'0 0.0
2017-Nov-19 08:01N 39°54' W 075°08'0 0.0
2017-Nov-19 07:30N 39°54' W 075°08'0 0.0
2017-Nov-19 07:00N 39°54' W 075°08'0 0.0
2017-Nov-19 06:30N 39°54' W 075°08'0 0.3
2017-Nov-19 06:01N 39°54' W 075°08'0 0.9
2017-Nov-19 05:30N 39°54' W 075°08'0 0.5
2017-Nov-19 05:00N 39°54' W 075°08'0 0.7
2017-Nov-19 04:30N 39°54' W 075°08'1 2.7
2017-Nov-19 04:00N 39°53' W 075°09'0 0.4
2017-Nov-19 03:30N 39°53' W 075°09'2 4.6
2017-Nov-19 03:00N 39°54' W 075°12'0 0.0
2017-Nov-19 02:30N 39°54' W 075°12'0 0.0
2017-Nov-19 02:00N 39°54' W 075°12'0 0.0
2017-Nov-19 01:30N 39°54' W 075°12'0 0.0
2017-Nov-19 01:00N 39°54' W 075°12'0 0.0
2017-Nov-19 00:30N 39°54' W 075°12'0 0.0
2017-Nov-19 00:00N 39°54' W 075°12'0 0.0
2017-Nov-18 23:30N 39°54' W 075°12'2 4.2
2017-Nov-18 23:00N 39°52' W 075°13'4 8.6
2017-Nov-18 22:30N 39°51' W 075°19'4 8.3
2017-Nov-18 22:00N 39°49' W 075°23'4 8.9
2017-Nov-18 21:30N 39°46' W 075°28'4 8.9
2017-Nov-18 21:00N 39°42' W 075°31'5 9.4
2017-Nov-18 20:30N 39°38' W 075°34'4 8.6
2017-Nov-18 20:00N 39°34' W 075°33'2 4.0
2017-Nov-18 19:30N 39°35' W 075°35'0 0.0
2017-Nov-18 19:00N 39°35' W 075°35'0 0.1
2017-Nov-18 18:30N 39°35' W 075°35'2 3.8
2017-Nov-18 18:00N 39°34' W 075°33'0 0.7
2017-Nov-18 17:30N 39°34' W 075°33'2 4.0
2017-Nov-18 17:00N 39°36' W 075°34'3 6.3
2017-Nov-18 16:30N 39°39' W 075°33'4 8.3
2017-Nov-18 16:00N 39°43' W 075°30'4 8.0
2017-Nov-18 15:31N 39°46' W 075°28'3 5.3
2017-Nov-18 15:00N 39°48' W 075°26'1 1.6
2017-Nov-18 14:31N 39°48' W 075°25'1 2.9
2017-Nov-18 14:00N 39°49' W 075°23'1 2.4
2017-Nov-18 13:30N 39°50' W 075°22'0 0.0
2017-Nov-18 13:00N 39°50' W 075°22'0 0.0
2017-Nov-18 12:30N 39°50' W 075°22'0 0.0
2017-Nov-18 12:00N 39°50' W 075°22'5 9.4
2017-Nov-18 11:31N 39°51' W 075°16'5 9.7
2017-Nov-18 11:00N 39°53' W 075°10'2 4.1
2017-Nov-18 10:30N 39°54' W 075°08'0 0.5
2017-Nov-18 10:00N 39°54' W 075°08'0 0.0
2017-Nov-18 09:30N 39°54' W 075°08'0 0.0
2017-Nov-18 09:00N 39°54' W 075°08'0 0.0
2017-Nov-18 08:30N 39°54' W 075°08'0 0.0
2017-Nov-18 08:00N 39°54' W 075°08'0 0.0
2017-Nov-18 07:30N 39°54' W 075°08'0 0.0
2017-Nov-18 07:00N 39°54' W 075°08'0 0.0
2017-Nov-18 06:30N 39°54' W 075°08'0 0.5
2017-Nov-18 06:00N 39°54' W 075°08'0 0.7
2017-Nov-18 05:30N 39°54' W 075°08'3 5.9
2017-Nov-18 05:00N 39°54' W 075°12'0 0.0
2017-Nov-18 04:30N 39°54' W 075°12'0 0.0
2017-Nov-18 04:00N 39°54' W 075°12'0 0.0
2017-Nov-18 03:30N 39°54' W 075°12'0 0.0
2017-Nov-18 03:00N 39°54' W 075°12'0 0.0
2017-Nov-18 02:30N 39°54' W 075°12'0 0.0
2017-Nov-18 02:01N 39°54' W 075°12'0 0.0
2017-Nov-18 01:30N 39°54' W 075°12'0 0.0
2017-Nov-18 01:00N 39°54' W 075°12'0 0.0
2017-Nov-18 00:30N 39°54' W 075°12'0 0.0
2017-Nov-18 00:00N 39°54' W 075°12'0 0.0
2017-Nov-17 23:30N 39°54' W 075°12'0 0.4
2017-Nov-17 23:00N 39°54' W 075°12'2 4.0
2017-Nov-17 22:31N 39°53' W 075°09'1 1.1
2017-Nov-17 22:00N 39°53' W 075°10'1 1.6
2017-Nov-17 21:30N 39°53' W 075°11'0 0.0
2017-Nov-17 21:01N 39°53' W 075°11'0 0.0
2017-Nov-17 20:31N 39°53' W 075°11'1 2.0
2017-Nov-17 20:00N 39°53' W 075°10'2 3.6
2017-Nov-17 19:30N 39°54' W 075°08'1 2.9
2017-Nov-17 19:00N 39°53' W 075°09'0 0.3
2017-Nov-17 18:30N 39°53' W 075°09'0 0.3
2017-Nov-17 18:00N 39°53' W 075°09'2 4.6
2017-Nov-17 17:30N 39°53' W 075°12'5 9.9
2017-Nov-17 17:00N 39°51' W 075°18'5 9.6
2017-Nov-17 16:30N 39°49' W 075°24'1 2.1
2017-Nov-17 16:00N 39°48' W 075°25'0 0.0
2017-Nov-17 15:30N 39°48' W 075°25'0 0.0
2017-Nov-17 15:00N 39°48' W 075°25'0 0.3
2017-Nov-17 14:30N 39°48' W 075°25'2 3.4
2017-Nov-17 14:00N 39°49' W 075°23'4 7.1
2017-Nov-17 13:30N 39°51' W 075°19'4 7.6
2017-Nov-17 13:01N 39°51' W 075°14'3 6.0
2017-Nov-17 12:31N 39°54' W 075°12'0 0.0
2017-Nov-17 12:00N 39°54' W 075°12'0 0.0
2017-Nov-17 11:31N 39°54' W 075°12'0 0.0
2017-Nov-17 11:01N 39°54' W 075°12'0 0.0
2017-Nov-17 10:31N 39°54' W 075°12'0 0.0
2017-Nov-17 10:01N 39°54' W 075°12'0 0.0
2017-Nov-17 09:31N 39°54' W 075°12'0 0.0
2017-Nov-17 09:01N 39°54' W 075°12'0 0.0
2017-Nov-17 08:30N 39°54' W 075°12'0 0.0
2017-Nov-17 08:00N 39°54' W 075°12'0 0.0
2017-Nov-17 07:30N 39°54' W 075°12'0 0.0
2017-Nov-17 07:00N 39°54' W 075°12'0 0.0
2017-Nov-17 06:31N 39°54' W 075°12'0 0.0
2017-Nov-17 06:01N 39°54' W 075°12'2 4.2
2017-Nov-17 05:30N 39°52' W 075°13'0 0.3
2017-Nov-17 05:00N 39°52' W 075°13'0 0.0
2017-Nov-17 04:30N 39°52' W 075°13'2 4.8
2017-Nov-17 04:00N 39°53' W 075°10'3 6.6
2017-Nov-17 03:31N 39°56' W 075°08'0 0.6
2017-Nov-17 03:01N 39°56' W 075°08'1 2.0
2017-Nov-17 02:30N 39°55' W 075°08'1 2.3
2017-Nov-17 02:01N 39°54' W 075°08'0 0.6
2017-Nov-17 01:31N 39°54' W 075°08'3 6.1
2017-Nov-17 01:01N 39°54' W 075°12'0 0.1
2017-Nov-17 00:30N 39°54' W 075°12'0 0.0
2017-Nov-17 00:01N 39°54' W 075°12'0 0.0
2017-Nov-16 23:30N 39°54' W 075°12'0 0.0
2017-Nov-16 23:00N 39°54' W 075°12'0 0.0
2017-Nov-16 22:31N 39°54' W 075°12'0 0.0
2017-Nov-16 22:01N 39°54' W 075°12'0 0.0
2017-Nov-16 21:30N 39°54' W 075°12'0 0.0
2017-Nov-16 21:01N 39°54' W 075°12'0 0.0
2017-Nov-16 20:30N 39°54' W 075°12'0 0.0
2017-Nov-16 20:00N 39°54' W 075°12'0 0.0
2017-Nov-16 19:30N 39°54' W 075°12'0 0.0
2017-Nov-16 19:00N 39°54' W 075°12'0 0.1
2017-Nov-16 18:30N 39°54' W 075°12'0 0.0
2017-Nov-16 18:00N 39°54' W 075°12'0 0.0
2017-Nov-16 17:30N 39°54' W 075°12'0 0.0
2017-Nov-16 17:00N 39°54' W 075°12'0 0.0
2017-Nov-16 16:30N 39°54' W 075°12'0 0.0
2017-Nov-16 16:00N 39°54' W 075°12'0 0.0
2017-Nov-16 15:30N 39°54' W 075°12'0 0.0
2017-Nov-16 15:00N 39°54' W 075°12'0 0.0
2017-Nov-16 14:30N 39°54' W 075°12'0 0.0
2017-Nov-16 14:00N 39°54' W 075°12'0 0.0
2017-Nov-16 13:31N 39°54' W 075°12'0 0.0
2017-Nov-16 13:00N 39°54' W 075°12'0 0.0
2017-Nov-16 12:30N 39°54' W 075°12'0 0.0
2017-Nov-16 12:00N 39°54' W 075°12'0 0.0
2017-Nov-16 11:31N 39°54' W 075°12'0 0.0
2017-Nov-16 11:00N 39°54' W 075°12'0 0.0
2017-Nov-16 10:31N 39°54' W 075°12'0 0.0
2017-Nov-16 10:00N 39°54' W 075°12'0 0.0
2017-Nov-16 09:31N 39°54' W 075°12'0 0.0
2017-Nov-16 09:00N 39°54' W 075°12'2 3.5
2017-Nov-16 08:30N 39°53' W 075°10'4 8.2
2017-Nov-16 08:01N 39°57' W 075°08'3 6.1
2017-Nov-16 07:30N 39°59' W 075°05'1 2.1
2017-Nov-16 07:01N 39°58' W 075°06'2 3.3
2017-Nov-16 06:30N 39°57' W 075°08'3 5.3
2017-Nov-16 06:01N 39°59' W 075°05'0 0.0
2017-Nov-16 05:30N 39°59' W 075°05'0 0.0
2017-Nov-16 05:00N 39°59' W 075°05'3 5.6
2017-Nov-16 04:31N 39°57' W 075°08'2 3.8
2017-Nov-16 04:01N 39°55' W 075°08'4 7.5
2017-Nov-16 03:31N 39°59' W 075°05'1 1.8
2017-Nov-16 03:00N 39°59' W 075°04'2 4.5
2017-Nov-16 02:30N 39°58' W 075°07'4 7.6
2017-Nov-16 02:01N 39°54' W 075°08'4 7.5
2017-Nov-16 01:31N 39°53' W 075°12'1 1.5
2017-Nov-16 01:00N 39°52' W 075°13'0 0.5
2017-Nov-16 00:30N 39°52' W 075°13'0 0.0
2017-Nov-16 00:01N 39°52' W 075°13'1 2.4
2017-Nov-15 23:31N 39°53' W 075°12'1 1.7
2017-Nov-15 23:00N 39°54' W 075°12'0 0.0
2017-Nov-15 22:30N 39°54' W 075°12'0 0.0
2017-Nov-15 22:00N 39°54' W 075°12'0 0.0
2017-Nov-15 21:31N 39°54' W 075°12'0 0.0
2017-Nov-15 21:00N 39°54' W 075°12'0 0.0
2017-Nov-15 20:30N 39°54' W 075°12'0 0.0
2017-Nov-15 20:01N 39°54' W 075°12'0 0.0
2017-Nov-15 19:30N 39°54' W 075°12'0 0.0
2017-Nov-15 19:00N 39°54' W 075°12'0 0.0
2017-Nov-15 18:31N 39°54' W 075°12'0 0.0
2017-Nov-15 18:00N 39°54' W 075°12'1 1.8
2017-Nov-15 17:30N 39°53' W 075°11'0 0.3
2017-Nov-15 17:00N 39°53' W 075°11'2 3.6
2017-Nov-15 16:30N 39°52' W 075°13'3 5.7
2017-Nov-15 16:00N 39°51' W 075°16'4 8.5
2017-Nov-15 15:30N 39°50' W 075°22'2 4.9
2017-Nov-15 15:00N 39°49' W 075°24'0 0.0
2017-Nov-15 14:31N 39°49' W 075°24'0 0.1
2017-Nov-15 14:00N 39°49' W 075°24'1 1.1
2017-Nov-15 13:30N 39°49' W 075°24'2 3.7
2017-Nov-15 13:00N 39°48' W 075°26'0 0.3
2017-Nov-15 12:30N 39°48' W 075°26'1 2.2
2017-Nov-15 12:00N 39°49' W 075°25'4 7.5
2017-Nov-15 11:30N 39°51' W 075°21'4 7.5
2017-Nov-15 11:00N 39°51' W 075°16'4 8.1
2017-Nov-15 10:30N 39°54' W 075°12'0 0.0
2017-Nov-15 10:00N 39°54' W 075°12'0 0.0
2017-Nov-15 09:30N 39°54' W 075°12'0 0.0
2017-Nov-15 09:01N 39°54' W 075°12'0 0.0
2017-Nov-15 08:30N 39°54' W 075°12'0 0.0
2017-Nov-15 08:00N 39°54' W 075°12'0 0.0
2017-Nov-15 07:31N 39°54' W 075°12'0 0.0
2017-Nov-15 07:01N 39°54' W 075°12'0 0.0
2017-Nov-15 06:30N 39°54' W 075°12'0 0.0
2017-Nov-15 06:00N 39°54' W 075°12'0 0.0
2017-Nov-15 05:30N 39°54' W 075°12'0 0.0
2017-Nov-15 05:00N 39°54' W 075°12'0 0.0
2017-Nov-15 04:31N 39°54' W 075°12'0 0.0
2017-Nov-15 04:00N 39°54' W 075°12'0 0.0
2017-Nov-15 03:30N 39°54' W 075°12'0 0.0
2017-Nov-15 03:01N 39°54' W 075°12'0 0.0
2017-Nov-15 02:31N 39°54' W 075°12'0 0.0
2017-Nov-15 02:01N 39°54' W 075°12'0 0.0
2017-Nov-15 01:30N 39°54' W 075°12'0 0.0
2017-Nov-15 01:01N 39°54' W 075°12'0 0.0
2017-Nov-15 00:30N 39°54' W 075°12'0 0.0
2017-Nov-15 00:01N 39°54' W 075°12'0 0.0
2017-Nov-14 23:30N 39°54' W 075°12'0 0.0
2017-Nov-14 23:01N 39°54' W 075°12'0 0.0
2017-Nov-14 22:30N 39°54' W 075°12'0 0.0
2017-Nov-14 22:00N 39°54' W 075°12'0 0.0
2017-Nov-14 21:30N 39°54' W 075°12'1 2.8
2017-Nov-14 21:00N 39°53' W 075°10'2 4.4
2017-Nov-14 20:30N 39°54' W 075°08'0 0.0
2017-Nov-14 20:00N 39°54' W 075°08'0 0.0
2017-Nov-14 19:30N 39°54' W 075°08'3 5.1
2017-Nov-14 19:00N 39°53' W 075°11'1 2.3
2017-Nov-14 18:30N 39°54' W 075°12'0 0.0
2017-Nov-14 18:00N 39°54' W 075°12'0 0.0
2017-Nov-14 17:30N 39°54' W 075°12'0 0.0
2017-Nov-14 17:00N 39°54' W 075°12'0 0.0
2017-Nov-14 16:30N 39°54' W 075°12'0 0.0
2017-Nov-14 16:00N 39°54' W 075°12'0 0.0
2017-Nov-14 15:30N 39°54' W 075°12'0 0.0
2017-Nov-14 15:01N 39°54' W 075°12'0 0.0
2017-Nov-14 14:30N 39°54' W 075°12'0 0.0
2017-Nov-14 14:00N 39°54' W 075°12'0 0.0
2017-Nov-14 13:30N 39°54' W 075°12'0 0.0
2017-Nov-14 13:00N 39°54' W 075°12'0 0.0
2017-Nov-14 12:30N 39°54' W 075°12'2 4.1
2017-Nov-14 12:00N 39°52' W 075°13'5 9.0
2017-Nov-14 11:30N 39°51' W 075°19'1 2.2
2017-Nov-14 11:00N 39°51' W 075°20'0 0.5
2017-Nov-14 10:31N 39°51' W 075°20'0 0.1
2017-Nov-14 10:00N 39°51' W 075°20'1 2.7
2017-Nov-14 09:31N 39°50' W 075°21'1 1.4
2017-Nov-14 09:00N 39°50' W 075°22'3 5.4
2017-Nov-14 08:30N 39°51' W 075°19'4 8.9
2017-Nov-14 08:01N 39°52' W 075°13'2 0.3
2017-Nov-14 01:43N 39°51' W 075°16'0 0.2
2017-Nov-14 01:31N 39°51' W 075°16'0 0.0
2017-Nov-14 01:00N 39°51' W 075°16'0 0.0
2017-Nov-14 00:30N 39°51' W 075°16'1 1.9
2017-Nov-14 00:01N 39°51' W 075°17'1 1.9
2017-Nov-13 23:31N 39°51' W 075°16'0 0.0
2017-Nov-13 23:00N 39°51' W 075°16'1 1.2
2017-Nov-13 22:31N 39°51' W 075°15'4 7.5
2017-Nov-13 22:00N 39°54' W 075°12'0 0.0
2017-Nov-13 02:00N 39°54' W 075°12'0 0.0
2017-Nov-13 01:30N 39°54' W 075°12'3 6.8
2017-Nov-13 01:01N 39°51' W 075°15'0 0.6
2017-Nov-13 00:30N 39°51' W 075°15'0 1.0
2017-Nov-13 00:01N 39°51' W 075°14'0 0.2
2017-Nov-12 23:30N 39°51' W 075°14'1 2.9
2017-Nov-12 23:00N 39°52' W 075°13'2 3.4
2017-Nov-12 22:30N 39°54' W 075°12'0 0.0
2017-Nov-12 22:00N 39°54' W 075°12'0 0.0
2017-Nov-12 21:30N 39°54' W 075°12'1 1.8
2017-Nov-12 21:00N 39°53' W 075°11'3 6.1
2017-Nov-12 20:30N 39°54' W 075°08'1 1.1
2017-Nov-12 20:01N 39°54' W 075°08'2 4.2
2017-Nov-12 19:30N 39°53' W 075°11'1 2.2
2017-Nov-12 19:00N 39°54' W 075°12'0 0.0
2017-Nov-12 18:30N 39°54' W 075°12'0 0.0
2017-Nov-12 18:00N 39°54' W 075°12'0 0.0
2017-Nov-12 17:30N 39°54' W 075°12'0 0.0
2017-Nov-12 17:00N 39°54' W 075°12'0 0.0
2017-Nov-12 16:30N 39°54' W 075°12'0 0.0
2017-Nov-12 16:00N 39°54' W 075°12'0 0.0
2017-Nov-12 15:30N 39°54' W 075°12'0 0.0
2017-Nov-12 15:00N 39°54' W 075°12'0 0.0
2017-Nov-12 14:30N 39°54' W 075°12'0 0.0
2017-Nov-12 14:00N 39°54' W 075°12'0 0.0
2017-Nov-12 13:30N 39°54' W 075°12'0 0.0
2017-Nov-12 13:00N 39°54' W 075°12'3 5.4
2017-Nov-12 12:31N 39°53' W 075°08'1 1.7
2017-Nov-12 12:01N 39°54' W 075°08'1 1.8
2017-Nov-12 11:30N 39°53' W 075°08'4 7.7
2017-Nov-12 11:01N 39°52' W 075°13'4 8.1
2017-Nov-12 10:30N 39°54' W 075°08'2 3.5
2017-Nov-12 10:00N 39°53' W 075°10'2 3.0
2017-Nov-12 09:30N 39°54' W 075°12'0 0.0
2017-Nov-12 09:00N 39°54' W 075°12'0 0.0
2017-Nov-12 08:30N 39°54' W 075°12'0 0.0
2017-Nov-12 08:00N 39°54' W 075°12'0 0.0
2017-Nov-12 07:30N 39°54' W 075°12'0 0.0
2017-Nov-12 07:00N 39°54' W 075°12'0 0.0
2017-Nov-12 06:30N 39°54' W 075°12'0 0.0
2017-Nov-12 06:00N 39°54' W 075°12'0 0.0
2017-Nov-12 05:30N 39°54' W 075°12'0 0.0
2017-Nov-12 05:00N 39°54' W 075°12'0 0.0
2017-Nov-12 04:30N 39°54' W 075°12'0 0.0
2017-Nov-12 04:00N 39°54' W 075°12'0 0.0
2017-Nov-12 03:30N 39°54' W 075°12'0 0.0
2017-Nov-12 03:00N 39°54' W 075°12'0 0.0
2017-Nov-12 02:31N 39°54' W 075°12'0 0.0
2017-Nov-12 02:00N 39°54' W 075°12'0 0.0
2017-Nov-12 01:30N 39°54' W 075°12'0 0.0
2017-Nov-12 01:01N 39°54' W 075°12'0 0.0
2017-Nov-12 00:30N 39°54' W 075°12'0 0.0
2017-Nov-12 00:00N 39°54' W 075°12'0 0.0
2017-Nov-11 23:30N 39°54' W 075°12'0 0.0
2017-Nov-11 23:00N 39°54' W 075°12'0 0.0
2017-Nov-11 22:30N 39°54' W 075°12'0 0.0
2017-Nov-11 22:01N 39°54' W 075°12'0 0.0
2017-Nov-11 21:30N 39°54' W 075°12'0 0.0
2017-Nov-11 21:01N 39°54' W 075°12'0 0.0
2017-Nov-11 20:30N 39°54' W 075°12'0 0.0
2017-Nov-11 20:01N 39°54' W 075°12'0 0.0
2017-Nov-11 19:30N 39°54' W 075°12'0 0.0
2017-Nov-11 19:00N 39°54' W 075°12'0 0.0
2017-Nov-11 18:30N 39°54' W 075°12'0 0.0
2017-Nov-11 18:00N 39°54' W 075°12'0 0.0
2017-Nov-11 17:31N 39°54' W 075°12'0 0.0
2017-Nov-11 17:00N 39°54' W 075°12'0 0.6
2017-Nov-11 16:31N 39°54' W 075°12'0 0.1
2017-Nov-11 16:00N 39°54' W 075°12'0 0.0
2017-Nov-11 15:30N 39°54' W 075°12'0 0.0
2017-Nov-11 15:00N 39°54' W 075°12'0 0.0
2017-Nov-11 14:30N 39°54' W 075°12'0 0.2
2017-Nov-11 14:00N 39°53' W 075°12'0 0.2
2017-Nov-11 13:30N 39°54' W 075°12'0 0.0
2017-Nov-11 13:00N 39°54' W 075°12'0 0.8
2017-Nov-11 12:30N 39°53' W 075°12'510.5
2017-Nov-11 12:00N 39°51' W 075°18'510.9
2017-Nov-11 11:30N 39°49' W 075°24'510.6
2017-Nov-11 11:00N 39°45' W 075°29'511.0
2017-Nov-11 10:30N 39°40' W 075°32'4 8.9
2017-Nov-11 10:00N 39°36' W 075°34'1 2.9
2017-Nov-11 09:30N 39°34' W 075°34'2 3.1
2017-Nov-11 09:00N 39°35' W 075°35'1 2.8
2017-Nov-11 08:30N 39°35' W 075°34'4 8.6
2017-Nov-11 08:00N 39°39' W 075°33'4 7.8
2017-Nov-11 07:30N 39°43' W 075°31'0 0.0
2017-Nov-11 07:00N 39°43' W 075°31'0 0.0
2017-Nov-11 06:30N 39°43' W 075°31'0 0.0
2017-Nov-11 06:00N 39°43' W 075°31'0 0.5
2017-Nov-11 05:30N 39°43' W 075°31'510.1
2017-Nov-11 05:00N 39°47' W 075°27'510.1
2017-Nov-11 04:30N 39°50' W 075°22'510.2
2017-Nov-11 04:01N 39°51' W 075°15'5 9.9
2017-Nov-11 03:30N 39°53' W 075°09'2 3.1
2017-Nov-11 03:01N 39°54' W 075°08'0 0.3
2017-Nov-11 02:31N 39°54' W 075°08'0 0.0
2017-Nov-11 02:00N 39°54' W 075°08'0 0.0
2017-Nov-11 01:30N 39°54' W 075°08'3 6.1
2017-Nov-11 01:00N 39°57' W 075°08'4 8.9
2017-Nov-11 00:30N 40°00' W 075°03'5 9.7
2017-Nov-11 00:00N 40°03' W 074°58'5 9.2
2017-Nov-10 23:30N 40°05' W 074°53'4 8.0
2017-Nov-10 23:00N 40°08' W 074°49'3 6.0
2017-Nov-10 22:30N 40°08' W 074°45'2 3.5
2017-Nov-10 21:58N 40°07' W 074°47'1 3.2
2017-Nov-10 21:30N 40°08' W 074°49'0 0.0
2017-Nov-10 21:00N 40°08' W 074°49'3 6.4
2017-Nov-10 20:30N 40°05' W 074°52'4 8.9
2017-Nov-10 20:00N 40°04' W 074°57'4 9.0
2017-Nov-10 19:30N 40°01' W 075°02'4 8.3
2017-Nov-10 19:01N 39°58' W 075°06'4 7.2
2017-Nov-10 18:30N 39°55' W 075°08'1 1.6
2017-Nov-10 18:00N 39°54' W 075°08'0 0.2
2017-Nov-10 17:31N 39°54' W 075°08'2 3.4
2017-Nov-10 17:01N 39°53' W 075°09'2 3.6
2017-Nov-10 16:30N 39°54' W 075°08'3 6.0
2017-Nov-10 16:00N 39°53' W 075°12'1 1.1
2017-Nov-10 15:30N 39°54' W 075°12'0 0.0
2017-Nov-10 15:00N 39°54' W 075°12'0 0.0
2017-Nov-10 14:30N 39°54' W 075°12'0 0.0
2017-Nov-10 14:00N 39°54' W 075°12'0 0.0
2017-Nov-10 13:30N 39°54' W 075°12'0 0.0
2017-Nov-10 13:00N 39°54' W 075°12'0 0.0
2017-Nov-10 12:31N 39°54' W 075°12'0 0.0
2017-Nov-10 12:00N 39°54' W 075°12'0 0.0
2017-Nov-10 11:31N 39°54' W 075°12'0 0.0
2017-Nov-10 11:00N 39°54' W 075°12'0 0.0
2017-Nov-10 10:30N 39°54' W 075°12'0 0.0
2017-Nov-10 10:00N 39°54' W 075°12'0 0.0
2017-Nov-10 09:30N 39°54' W 075°12'0 0.0
2017-Nov-10 09:00N 39°54' W 075°12'0 0.0
2017-Nov-10 08:30N 39°54' W 075°12'0 0.0
2017-Nov-10 08:00N 39°54' W 075°12'0 0.0
2017-Nov-10 07:30N 39°54' W 075°12'0 0.0
2017-Nov-10 07:00N 39°54' W 075°12'0 0.0
2017-Nov-10 06:30N 39°54' W 075°12'3 6.2
2017-Nov-10 06:00N 39°54' W 075°08'0 1.0
2017-Nov-10 05:30N 39°55' W 075°08'2 4.2
2017-Nov-10 05:00N 39°57' W 075°08'4 7.4
2017-Nov-10 04:30N 39°59' W 075°04'1 1.2
2017-Nov-10 04:00N 39°59' W 075°05'0 0.0
2017-Nov-10 03:30N 39°59' W 075°05'3 5.2
2017-Nov-10 03:01N 39°57' W 075°08'4 8.7
2017-Nov-10 02:31N 39°53' W 075°08'4 7.2
2017-Nov-10 02:00N 39°52' W 075°13'0 0.1
2017-Nov-10 01:31N 39°52' W 075°13'0 0.0
2017-Nov-10 01:00N 39°52' W 075°13'1 1.2
2017-Nov-10 00:31N 39°52' W 075°14'6 1.3
2017-Nov-09 20:04N 39°50' W 075°21'1 9.5
2017-Nov-09 20:00N 39°50' W 075°22'3 5.1
2017-Nov-09 19:30N 39°49' W 075°24'0 0.0
2017-Nov-09 19:00N 39°49' W 075°24'1 2.3
2017-Nov-09 18:30N 39°49' W 075°23'4 9.0
2017-Nov-09 18:01N 39°51' W 075°18'4 7.5
2017-Nov-09 17:30N 39°52' W 075°13'2 3.8
2017-Nov-09 17:00N 39°54' W 075°12'0 0.0
2017-Nov-09 16:30N 39°54' W 075°12'0 0.0
2017-Nov-09 16:01N 39°54' W 075°12'0 0.0
2017-Nov-09 15:31N 39°54' W 075°12'0 0.0
2017-Nov-09 15:01N 39°54' W 075°12'0 0.0
2017-Nov-09 14:30N 39°54' W 075°12'0 0.0
2017-Nov-09 14:00N 39°54' W 075°12'0 0.0
2017-Nov-09 13:30N 39°54' W 075°12'0 0.0
2017-Nov-09 13:01N 39°54' W 075°12'0 0.0
2017-Nov-09 12:30N 39°54' W 075°12'0 0.0
2017-Nov-09 12:01N 39°54' W 075°12'0 0.0
2017-Nov-09 11:31N 39°54' W 075°12'0 0.0
2017-Nov-09 11:00N 39°54' W 075°12'0 0.0
2017-Nov-09 10:30N 39°54' W 075°12'  
Track history (hours):
 
Tides and Currents Weather Stations Pressure Air Temp Water Temp Dewpoint Dewpoint Depression Visibility Wind Speed Wind Dir Waves Ship Positions

Reid Mcallister

Owner: McAllister Brothers, LLC, Staten Island, NY. More information available from US FCC via Universal Licensing System and Coast Guard Vessel Documentation Center.

Last reported at 2017-Nov-19 10:00 UTC. Time now 2017-Nov-19 10:21 UTC.
Position N 39°54' W 075°08'.

Length 24 m; draft 3.1 m.

Type: Other ship. MMSI: 367379670.

Date/timePositionNaut miles runAvg speedWind from/ knotsBaromVisibWave heightAir tempDewpointWater temp
2017-Nov-19 10:00N 39°54' W 075°08'0 0.0
2017-Nov-19 09:30N 39°54' W 075°08'0 0.0
2017-Nov-19 09:01N 39°54' W 075°08'0 0.0
2017-Nov-19 08:30N 39°54' W 075°08'0 0.0
2017-Nov-19 08:01N 39°54' W 075°08'0 0.0
2017-Nov-19 07:30N 39°54' W 075°08'0 0.0
2017-Nov-19 07:00N 39°54' W 075°08'0 0.0
2017-Nov-19 06:30N 39°54' W 075°08'0 0.3
2017-Nov-19 06:01N 39°54' W 075°08'0 0.9
2017-Nov-19 05:30N 39°54' W 075°08'0 0.5
2017-Nov-19 05:00N 39°54' W 075°08'0 0.7
2017-Nov-19 04:30N 39°54' W 075°08'1 2.7
2017-Nov-19 04:00N 39°53' W 075°09'0 0.4
2017-Nov-19 03:30N 39°53' W 075°09'2 4.6
2017-Nov-19 03:00N 39°54' W 075°12'0 0.0
2017-Nov-19 02:30N 39°54' W 075°12'0 0.0
2017-Nov-19 02:00N 39°54' W 075°12'0 0.0
2017-Nov-19 01:30N 39°54' W 075°12'0 0.0
2017-Nov-19 01:00N 39°54' W 075°12'0 0.0
2017-Nov-19 00:30N 39°54' W 075°12'0 0.0
2017-Nov-19 00:00N 39°54' W 075°12'0 0.0
2017-Nov-18 23:30N 39°54' W 075°12'2 4.2
2017-Nov-18 23:00N 39°52' W 075°13'4 8.6
2017-Nov-18 22:30N 39°51' W 075°19'4 8.3
2017-Nov-18 22:00N 39°49' W 075°23'4 8.9
2017-Nov-18 21:30N 39°46' W 075°28'4 8.9
2017-Nov-18 21:00N 39°42' W 075°31'5 9.4
2017-Nov-18 20:30N 39°38' W 075°34'4 8.6
2017-Nov-18 20:00N 39°34' W 075°33'2 4.0
2017-Nov-18 19:30N 39°35' W 075°35'0 0.0
2017-Nov-18 19:00N 39°35' W 075°35'0 0.1
2017-Nov-18 18:30N 39°35' W 075°35'2 3.8
2017-Nov-18 18:00N 39°34' W 075°33'0 0.7
2017-Nov-18 17:30N 39°34' W 075°33'2 4.0
2017-Nov-18 17:00N 39°36' W 075°34'3 6.3
2017-Nov-18 16:30N 39°39' W 075°33'4 8.3
2017-Nov-18 16:00N 39°43' W 075°30'4 8.0
2017-Nov-18 15:31N 39°46' W 075°28'3 5.3
2017-Nov-18 15:00N 39°48' W 075°26'1 1.6
2017-Nov-18 14:31N 39°48' W 075°25'1 2.9
2017-Nov-18 14:00N 39°49' W 075°23'1 2.4
2017-Nov-18 13:30N 39°50' W 075°22'0 0.0
2017-Nov-18 13:00N 39°50' W 075°22'0 0.0
2017-Nov-18 12:30N 39°50' W 075°22'0 0.0
2017-Nov-18 12:00N 39°50' W 075°22'5 9.4
2017-Nov-18 11:31N 39°51' W 075°16'5 9.7
2017-Nov-18 11:00N 39°53' W 075°10'2 4.1
2017-Nov-18 10:30N 39°54' W 075°08'0 0.5
2017-Nov-18 10:00N 39°54' W 075°08'0 0.0
2017-Nov-18 09:30N 39°54' W 075°08'0 0.0
2017-Nov-18 09:00N 39°54' W 075°08'0 0.0
2017-Nov-18 08:30N 39°54' W 075°08'0 0.0
2017-Nov-18 08:00N 39°54' W 075°08'0 0.0
2017-Nov-18 07:30N 39°54' W 075°08'0 0.0
2017-Nov-18 07:00N 39°54' W 075°08'0 0.0
2017-Nov-18 06:30N 39°54' W 075°08'0 0.5
2017-Nov-18 06:00N 39°54' W 075°08'0 0.7
2017-Nov-18 05:30N 39°54' W 075°08'3 5.9
2017-Nov-18 05:00N 39°54' W 075°12'0 0.0
2017-Nov-18 04:30N 39°54' W 075°12'0 0.0
2017-Nov-18 04:00N 39°54' W 075°12'0 0.0
2017-Nov-18 03:30N 39°54' W 075°12'0 0.0
2017-Nov-18 03:00N 39°54' W 075°12'0 0.0
2017-Nov-18 02:30N 39°54' W 075°12'0 0.0
2017-Nov-18 02:01N 39°54' W 075°12'0 0.0
2017-Nov-18 01:30N 39°54' W 075°12'0 0.0
2017-Nov-18 01:00N 39°54' W 075°12'0 0.0
2017-Nov-18 00:30N 39°54' W 075°12'0 0.0
2017-Nov-18 00:00N 39°54' W 075°12'0 0.0
2017-Nov-17 23:30N 39°54' W 075°12'0 0.4
2017-Nov-17 23:00N 39°54' W 075°12'2 4.0
2017-Nov-17 22:31N 39°53' W 075°09'1 1.1
2017-Nov-17 22:00N 39°53' W 075°10'1 1.6
2017-Nov-17 21:30N 39°53' W 075°11'0 0.0
2017-Nov-17 21:01N 39°53' W 075°11'0 0.0
2017-Nov-17 20:31N 39°53' W 075°11'1 2.0
2017-Nov-17 20:00N 39°53' W 075°10'2 3.6
2017-Nov-17 19:30N 39°54' W 075°08'1 2.9
2017-Nov-17 19:00N 39°53' W 075°09'0 0.3
2017-Nov-17 18:30N 39°53' W 075°09'0 0.3
2017-Nov-17 18:00N 39°53' W 075°09'2 4.6
2017-Nov-17 17:30N 39°53' W 075°12'5 9.9
2017-Nov-17 17:00N 39°51' W 075°18'5 9.6
2017-Nov-17 16:30N 39°49' W 075°24'1 2.1
2017-Nov-17 16:00N 39°48' W 075°25'0 0.0
2017-Nov-17 15:30N 39°48' W 075°25'0 0.0
2017-Nov-17 15:00N 39°48' W 075°25'0 0.3
2017-Nov-17 14:30N 39°48' W 075°25'2 3.4
2017-Nov-17 14:00N 39°49' W 075°23'4 7.1
2017-Nov-17 13:30N 39°51' W 075°19'4 7.6
2017-Nov-17 13:01N 39°51' W 075°14'3 6.0
2017-Nov-17 12:31N 39°54' W 075°12'0 0.0
2017-Nov-17 12:00N 39°54' W 075°12'0 0.0
2017-Nov-17 11:31N 39°54' W 075°12'0 0.0
2017-Nov-17 11:01N 39°54' W 075°12'0 0.0
2017-Nov-17 10:31N 39°54' W 075°12'0 0.0
2017-Nov-17 10:01N 39°54' W 075°12'0 0.0
2017-Nov-17 09:31N 39°54' W 075°12'0 0.0
2017-Nov-17 09:01N 39°54' W 075°12'0 0.0
2017-Nov-17 08:30N 39°54' W 075°12'0 0.0
2017-Nov-17 08:00N 39°54' W 075°12'0 0.0
2017-Nov-17 07:30N 39°54' W 075°12'0 0.0
2017-Nov-17 07:00N 39°54' W 075°12'0 0.0
2017-Nov-17 06:31N 39°54' W 075°12'0 0.0
2017-Nov-17 06:01N 39°54' W 075°12'2 4.2
2017-Nov-17 05:30N 39°52' W 075°13'0 0.3
2017-Nov-17 05:00N 39°52' W 075°13'0 0.0
2017-Nov-17 04:30N 39°52' W 075°13'2 4.8
2017-Nov-17 04:00N 39°53' W 075°10'3 6.6
2017-Nov-17 03:31N 39°56' W 075°08'0 0.6
2017-Nov-17 03:01N 39°56' W 075°08'1 2.0
2017-Nov-17 02:30N 39°55' W 075°08'1 2.3
2017-Nov-17 02:01N 39°54' W 075°08'0 0.6
2017-Nov-17 01:31N 39°54' W 075°08'3 6.1
2017-Nov-17 01:01N 39°54' W 075°12'0 0.1
2017-Nov-17 00:30N 39°54' W 075°12'0 0.0
2017-Nov-17 00:01N 39°54' W 075°12'0 0.0
2017-Nov-16 23:30N 39°54' W 075°12'0 0.0
2017-Nov-16 23:00N 39°54' W 075°12'0 0.0
2017-Nov-16 22:31N 39°54' W 075°12'0 0.0
2017-Nov-16 22:01N 39°54' W 075°12'0 0.0
2017-Nov-16 21:30N 39°54' W 075°12'0 0.0
2017-Nov-16 21:01N 39°54' W 075°12'0 0.0
2017-Nov-16 20:30N 39°54' W 075°12'0 0.0
2017-Nov-16 20:00N 39°54' W 075°12'0 0.0
2017-Nov-16 19:30N 39°54' W 075°12'0 0.0
2017-Nov-16 19:00N 39°54' W 075°12'0 0.1
2017-Nov-16 18:30N 39°54' W 075°12'0 0.0
2017-Nov-16 18:00N 39°54' W 075°12'0 0.0
2017-Nov-16 17:30N 39°54' W 075°12'0 0.0
2017-Nov-16 17:00N 39°54' W 075°12'0 0.0
2017-Nov-16 16:30N 39°54' W 075°12'0 0.0
2017-Nov-16 16:00N 39°54' W 075°12'0 0.0
2017-Nov-16 15:30N 39°54' W 075°12'0 0.0
2017-Nov-16 15:00N 39°54' W 075°12'0 0.0
2017-Nov-16 14:30N 39°54' W 075°12'0 0.0
2017-Nov-16 14:00N 39°54' W 075°12'0 0.0
2017-Nov-16 13:31N 39°54' W 075°12'0 0.0
2017-Nov-16 13:00N 39°54' W 075°12'0 0.0
2017-Nov-16 12:30N 39°54' W 075°12'0 0.0
2017-Nov-16 12:00N 39°54' W 075°12'0 0.0
2017-Nov-16 11:31N 39°54' W 075°12'0 0.0
2017-Nov-16 11:00N 39°54' W 075°12'0 0.0
2017-Nov-16 10:31N 39°54' W 075°12'0 0.0
2017-Nov-16 10:00N 39°54' W 075°12'0 0.0
2017-Nov-16 09:31N 39°54' W 075°12'0 0.0
2017-Nov-16 09:00N 39°54' W 075°12'2 3.5
2017-Nov-16 08:30N 39°53' W 075°10'4 8.2
2017-Nov-16 08:01N 39°57' W 075°08'3 6.1
2017-Nov-16 07:30N 39°59' W 075°05'1 2.1
2017-Nov-16 07:01N 39°58' W 075°06'2 3.3
2017-Nov-16 06:30N 39°57' W 075°08'3 5.3
2017-Nov-16 06:01N 39°59' W 075°05'0 0.0
2017-Nov-16 05:30N 39°59' W 075°05'0 0.0
2017-Nov-16 05:00N 39°59' W 075°05'3 5.6
2017-Nov-16 04:31N 39°57' W 075°08'2 3.8
2017-Nov-16 04:01N 39°55' W 075°08'4 7.5
2017-Nov-16 03:31N 39°59' W 075°05'1 1.8
2017-Nov-16 03:00N 39°59' W 075°04'2 4.5
2017-Nov-16 02:30N 39°58' W 075°07'4 7.6
2017-Nov-16 02:01N 39°54' W 075°08'4 7.5
2017-Nov-16 01:31N 39°53' W 075°12'1 1.5
2017-Nov-16 01:00N 39°52' W 075°13'0 0.5
2017-Nov-16 00:30N 39°52' W 075°13'0 0.0
2017-Nov-16 00:01N 39°52' W 075°13'1 2.4
2017-Nov-15 23:31N 39°53' W 075°12'1 1.7
2017-Nov-15 23:00N 39°54' W 075°12'0 0.0
2017-Nov-15 22:30N 39°54' W 075°12'0 0.0
2017-Nov-15 22:00N 39°54' W 075°12'0 0.0
2017-Nov-15 21:31N 39°54' W 075°12'0 0.0
2017-Nov-15 21:00N 39°54' W 075°12'0 0.0
2017-Nov-15 20:30N 39°54' W 075°12'0 0.0
2017-Nov-15 20:01N 39°54' W 075°12'0 0.0
2017-Nov-15 19:30N 39°54' W 075°12'0 0.0
2017-Nov-15 19:00N 39°54' W 075°12'0 0.0
2017-Nov-15 18:31N 39°54' W 075°12'0 0.0
2017-Nov-15 18:00N 39°54' W 075°12'1 1.8
2017-Nov-15 17:30N 39°53' W 075°11'0 0.3
2017-Nov-15 17:00N 39°53' W 075°11'2 3.6
2017-Nov-15 16:30N 39°52' W 075°13'3 5.7
2017-Nov-15 16:00N 39°51' W 075°16'4 8.5
2017-Nov-15 15:30N 39°50' W 075°22'2 4.9
2017-Nov-15 15:00N 39°49' W 075°24'0 0.0
2017-Nov-15 14:31N 39°49' W 075°24'0 0.1
2017-Nov-15 14:00N 39°49' W 075°24'1 1.1
2017-Nov-15 13:30N 39°49' W 075°24'2 3.7
2017-Nov-15 13:00N 39°48' W 075°26'0 0.3
2017-Nov-15 12:30N 39°48' W 075°26'1 2.2
2017-Nov-15 12:00N 39°49' W 075°25'4 7.5
2017-Nov-15 11:30N 39°51' W 075°21'4 7.5
2017-Nov-15 11:00N 39°51' W 075°16'4 8.1
2017-Nov-15 10:30N 39°54' W 075°12'0 0.0
2017-Nov-15 10:00N 39°54' W 075°12'0 0.0
2017-Nov-15 09:30N 39°54' W 075°12'0 0.0
2017-Nov-15 09:01N 39°54' W 075°12'0 0.0
2017-Nov-15 08:30N 39°54' W 075°12'0 0.0
2017-Nov-15 08:00N 39°54' W 075°12'0 0.0
2017-Nov-15 07:31N 39°54' W 075°12'0 0.0
2017-Nov-15 07:01N 39°54' W 075°12'0 0.0
2017-Nov-15 06:30N 39°54' W 075°12'0 0.0
2017-Nov-15 06:00N 39°54' W 075°12'0 0.0
2017-Nov-15 05:30N 39°54' W 075°12'0 0.0
2017-Nov-15 05:00N 39°54' W 075°12'0 0.0
2017-Nov-15 04:31N 39°54' W 075°12'0 0.0
2017-Nov-15 04:00N 39°54' W 075°12'0 0.0
2017-Nov-15 03:30N 39°54' W 075°12'0 0.0
2017-Nov-15 03:01N 39°54' W 075°12'0 0.0
2017-Nov-15 02:31N 39°54' W 075°12'0 0.0
2017-Nov-15 02:01N 39°54' W 075°12'0 0.0
2017-Nov-15 01:30N 39°54' W 075°12'0 0.0
2017-Nov-15 01:01N 39°54' W 075°12'0 0.0
2017-Nov-15 00:30N 39°54' W 075°12'0 0.0
2017-Nov-15 00:01N 39°54' W 075°12'0 0.0
2017-Nov-14 23:30N 39°54' W 075°12'0 0.0
2017-Nov-14 23:01N 39°54' W 075°12'0 0.0
2017-Nov-14 22:30N 39°54' W 075°12'0 0.0
2017-Nov-14 22:00N 39°54' W 075°12'0 0.0
2017-Nov-14 21:30N 39°54' W 075°12'1 2.8
2017-Nov-14 21:00N 39°53' W 075°10'2 4.4
2017-Nov-14 20:30N 39°54' W 075°08'0 0.0
2017-Nov-14 20:00N 39°54' W 075°08'0 0.0
2017-Nov-14 19:30N 39°54' W 075°08'3 5.1
2017-Nov-14 19:00N 39°53' W 075°11'1 2.3
2017-Nov-14 18:30N 39°54' W 075°12'0 0.0
2017-Nov-14 18:00N 39°54' W 075°12'0 0.0
2017-Nov-14 17:30N 39°54' W 075°12'0 0.0
2017-Nov-14 17:00N 39°54' W 075°12'0 0.0
2017-Nov-14 16:30N 39°54' W 075°12'0 0.0
2017-Nov-14 16:00N 39°54' W 075°12'0 0.0
2017-Nov-14 15:30N 39°54' W 075°12'0 0.0
2017-Nov-14 15:01N 39°54' W 075°12'0 0.0
2017-Nov-14 14:30N 39°54' W 075°12'0 0.0
2017-Nov-14 14:00N 39°54' W 075°12'0 0.0
2017-Nov-14 13:30N 39°54' W 075°12'0 0.0
2017-Nov-14 13:00N 39°54' W 075°12'0 0.0
2017-Nov-14 12:30N 39°54' W 075°12'2 4.1
2017-Nov-14 12:00N 39°52' W 075°13'5 9.0
2017-Nov-14 11:30N 39°51' W 075°19'1 2.2
2017-Nov-14 11:00N 39°51' W 075°20'0 0.5
2017-Nov-14 10:31N 39°51' W 075°20'0 0.1
2017-Nov-14 10:00N 39°51' W 075°20'1 2.7
2017-Nov-14 09:31N 39°50' W 075°21'1 1.4
2017-Nov-14 09:00N 39°50' W 075°22'3 5.4
2017-Nov-14 08:30N 39°51' W 075°19'4 8.9
2017-Nov-14 08:01N 39°52' W 075°13'2 0.3
2017-Nov-14 01:43N 39°51' W 075°16'0 0.2
2017-Nov-14 01:31N 39°51' W 075°16'0 0.0
2017-Nov-14 01:00N 39°51' W 075°16'0 0.0
2017-Nov-14 00:30N 39°51' W 075°16'1 1.9
2017-Nov-14 00:01N 39°51' W 075°17'1 1.9
2017-Nov-13 23:31N 39°51' W 075°16'0 0.0
2017-Nov-13 23:00N 39°51' W 075°16'1 1.2
2017-Nov-13 22:31N 39°51' W 075°15'4 7.5
2017-Nov-13 22:00N 39°54' W 075°12'0 0.0
2017-Nov-13 02:00N 39°54' W 075°12'0 0.0
2017-Nov-13 01:30N 39°54' W 075°12'3 6.8
2017-Nov-13 01:01N 39°51' W 075°15'0 0.6
2017-Nov-13 00:30N 39°51' W 075°15'0 1.0
2017-Nov-13 00:01N 39°51' W 075°14'0 0.2
2017-Nov-12 23:30N 39°51' W 075°14'1 2.9
2017-Nov-12 23:00N 39°52' W 075°13'2 3.4
2017-Nov-12 22:30N 39°54' W 075°12'0 0.0
2017-Nov-12 22:00N 39°54' W 075°12'0 0.0
2017-Nov-12 21:30N 39°54' W 075°12'1 1.8
2017-Nov-12 21:00N 39°53' W 075°11'3 6.1
2017-Nov-12 20:30N 39°54' W 075°08'1 1.1
2017-Nov-12 20:01N 39°54' W 075°08'2 4.2
2017-Nov-12 19:30N 39°53' W 075°11'1 2.2
2017-Nov-12 19:00N 39°54' W 075°12'0 0.0
2017-Nov-12 18:30N 39°54' W 075°12'0 0.0
2017-Nov-12 18:00N 39°54' W 075°12'0 0.0
2017-Nov-12 17:30N 39°54' W 075°12'0 0.0
2017-Nov-12 17:00N 39°54' W 075°12'0 0.0
2017-Nov-12 16:30N 39°54' W 075°12'0 0.0
2017-Nov-12 16:00N 39°54' W 075°12'0 0.0
2017-Nov-12 15:30N 39°54' W 075°12'0 0.0
2017-Nov-12 15:00N 39°54' W 075°12'0 0.0
2017-Nov-12 14:30N 39°54' W 075°12'0 0.0
2017-Nov-12 14:00N 39°54' W 075°12'0 0.0
2017-Nov-12 13:30N 39°54' W 075°12'0 0.0
2017-Nov-12 13:00N 39°54' W 075°12'3 5.4
2017-Nov-12 12:31N 39°53' W 075°08'1 1.7
2017-Nov-12 12:01N 39°54' W 075°08'1 1.8
2017-Nov-12 11:30N 39°53' W 075°08'4 7.7
2017-Nov-12 11:01N 39°52' W 075°13'4 8.1
2017-Nov-12 10:30N 39°54' W 075°08'2 3.5
2017-Nov-12 10:00N 39°53' W 075°10'2 3.0
2017-Nov-12 09:30N 39°54' W 075°12'0 0.0
2017-Nov-12 09:00N 39°54' W 075°12'0 0.0
2017-Nov-12 08:30N 39°54' W 075°12'0 0.0
2017-Nov-12 08:00N 39°54' W 075°12'0 0.0
2017-Nov-12 07:30N 39°54' W 075°12'0 0.0
2017-Nov-12 07:00N 39°54' W 075°12'0 0.0
2017-Nov-12 06:30N 39°54' W 075°12'0 0.0
2017-Nov-12 06:00N 39°54' W 075°12'0 0.0
2017-Nov-12 05:30N 39°54' W 075°12'0 0.0
2017-Nov-12 05:00N 39°54' W 075°12'0 0.0
2017-Nov-12 04:30N 39°54' W 075°12'0 0.0
2017-Nov-12 04:00N 39°54' W 075°12'0 0.0
2017-Nov-12 03:30N 39°54' W 075°12'0 0.0
2017-Nov-12 03:00N 39°54' W 075°12'0 0.0
2017-Nov-12 02:31N 39°54' W 075°12'0 0.0
2017-Nov-12 02:00N 39°54' W 075°12'0 0.0
2017-Nov-12 01:30N 39°54' W 075°12'0 0.0
2017-Nov-12 01:01N 39°54' W 075°12'0 0.0
2017-Nov-12 00:30N 39°54' W 075°12'0 0.0
2017-Nov-12 00:00N 39°54' W 075°12'0 0.0
2017-Nov-11 23:30N 39°54' W 075°12'0 0.0
2017-Nov-11 23:00N 39°54' W 075°12'0 0.0
2017-Nov-11 22:30N 39°54' W 075°12'0 0.0
2017-Nov-11 22:01N 39°54' W 075°12'0 0.0
2017-Nov-11 21:30N 39°54' W 075°12'0 0.0
2017-Nov-11 21:01N 39°54' W 075°12'0 0.0
2017-Nov-11 20:30N 39°54' W 075°12'0 0.0
2017-Nov-11 20:01N 39°54' W 075°12'0 0.0
2017-Nov-11 19:30N 39°54' W 075°12'0 0.0
2017-Nov-11 19:00N 39°54' W 075°12'0 0.0
2017-Nov-11 18:30N 39°54' W 075°12'0 0.0
2017-Nov-11 18:00N 39°54' W 075°12'0 0.0
2017-Nov-11 17:31N 39°54' W 075°12'0 0.0
2017-Nov-11 17:00N 39°54' W 075°12'0 0.6
2017-Nov-11 16:31N 39°54' W 075°12'0 0.1
2017-Nov-11 16:00N 39°54' W 075°12'0 0.0
2017-Nov-11 15:30N 39°54' W 075°12'0 0.0
2017-Nov-11 15:00N 39°54' W 075°12'0 0.0
2017-Nov-11 14:30N 39°54' W 075°12'0 0.2
2017-Nov-11 14:00N 39°53' W 075°12'0 0.2
2017-Nov-11 13:30N 39°54' W 075°12'0 0.0
2017-Nov-11 13:00N 39°54' W 075°12'0 0.8
2017-Nov-11 12:30N 39°53' W 075°12'510.5
2017-Nov-11 12:00N 39°51' W 075°18'510.9
2017-Nov-11 11:30N 39°49' W 075°24'510.6
2017-Nov-11 11:00N 39°45' W 075°29'511.0
2017-Nov-11 10:30N 39°40' W 075°32'4 8.9
2017-Nov-11 10:00N 39°36' W 075°34'1 2.9
2017-Nov-11 09:30N 39°34' W 075°34'2 3.1
2017-Nov-11 09:00N 39°35' W 075°35'1 2.8
2017-Nov-11 08:30N 39°35' W 075°34'4 8.6
2017-Nov-11 08:00N 39°39' W 075°33'4 7.8
2017-Nov-11 07:30N 39°43' W 075°31'0 0.0
2017-Nov-11 07:00N 39°43' W 075°31'0 0.0
2017-Nov-11 06:30N 39°43' W 075°31'0 0.0
2017-Nov-11 06:00N 39°43' W 075°31'0 0.5
2017-Nov-11 05:30N 39°43' W 075°31'510.1
2017-Nov-11 05:00N 39°47' W 075°27'510.1
2017-Nov-11 04:30N 39°50' W 075°22'510.2
2017-Nov-11 04:01N 39°51' W 075°15'5 9.9
2017-Nov-11 03:30N 39°53' W 075°09'2 3.1
2017-Nov-11 03:01N 39°54' W 075°08'0 0.3
2017-Nov-11 02:31N 39°54' W 075°08'0 0.0
2017-Nov-11 02:00N 39°54' W 075°08'0 0.0
2017-Nov-11 01:30N 39°54' W 075°08'3 6.1
2017-Nov-11 01:00N 39°57' W 075°08'4 8.9
2017-Nov-11 00:30N 40°00' W 075°03'5 9.7
2017-Nov-11 00:00N 40°03' W 074°58'5 9.2
2017-Nov-10 23:30N 40°05' W 074°53'4 8.0
2017-Nov-10 23:00N 40°08' W 074°49'3 6.0
2017-Nov-10 22:30N 40°08' W 074°45'2 3.5
2017-Nov-10 21:58N 40°07' W 074°47'1 3.2
2017-Nov-10 21:30N 40°08' W 074°49'0 0.0
2017-Nov-10 21:00N 40°08' W 074°49'3 6.4
2017-Nov-10 20:30N 40°05' W 074°52'4 8.9
2017-Nov-10 20:00N 40°04' W 074°57'4 9.0
2017-Nov-10 19:30N 40°01' W 075°02'4 8.3
2017-Nov-10 19:01N 39°58' W 075°06'4 7.2
2017-Nov-10 18:30N 39°55' W 075°08'1 1.6
2017-Nov-10 18:00N 39°54' W 075°08'0 0.2
2017-Nov-10 17:31N 39°54' W 075°08'2 3.4
2017-Nov-10 17:01N 39°53' W 075°09'2 3.6
2017-Nov-10 16:30N 39°54' W 075°08'3 6.0
2017-Nov-10 16:00N 39°53' W 075°12'1 1.1
2017-Nov-10 15:30N 39°54' W 075°12'0 0.0
2017-Nov-10 15:00N 39°54' W 075°12'0 0.0
2017-Nov-10 14:30N 39°54' W 075°12'0 0.0
2017-Nov-10 14:00N 39°54' W 075°12'0 0.0
2017-Nov-10 13:30N 39°54' W 075°12'0 0.0
2017-Nov-10 13:00N 39°54' W 075°12'0 0.0
2017-Nov-10 12:31N 39°54' W 075°12'0 0.0
2017-Nov-10 12:00N 39°54' W 075°12'0 0.0
2017-Nov-10 11:31N 39°54' W 075°12'0 0.0
2017-Nov-10 11:00N 39°54' W 075°12'0 0.0
2017-Nov-10 10:30N 39°54' W 075°12'0 0.0
2017-Nov-10 10:00N 39°54' W 075°12'0 0.0
2017-Nov-10 09:30N 39°54' W 075°12'0 0.0
2017-Nov-10 09:00N 39°54' W 075°12'0 0.0
2017-Nov-10 08:30N 39°54' W 075°12'0 0.0
2017-Nov-10 08:00N 39°54' W 075°12'0 0.0
2017-Nov-10 07:30N 39°54' W 075°12'0 0.0
2017-Nov-10 07:00N 39°54' W 075°12'0 0.0
2017-Nov-10 06:30N 39°54' W 075°12'3 6.2
2017-Nov-10 06:00N 39°54' W 075°08'0 1.0
2017-Nov-10 05:30N 39°55' W 075°08'2 4.2
2017-Nov-10 05:00N 39°57' W 075°08'4 7.4
2017-Nov-10 04:30N 39°59' W 075°04'1 1.2
2017-Nov-10 04:00N 39°59' W 075°05'0 0.0
2017-Nov-10 03:30N 39°59' W 075°05'3 5.2
2017-Nov-10 03:01N 39°57' W 075°08'4 8.7
2017-Nov-10 02:31N 39°53' W 075°08'4 7.2
2017-Nov-10 02:00N 39°52' W 075°13'0 0.1
2017-Nov-10 01:31N 39°52' W 075°13'0 0.0
2017-Nov-10 01:00N 39°52' W 075°13'1 1.2
2017-Nov-10 00:31N 39°52' W 075°14'6 1.3
2017-Nov-09 20:04N 39°50' W 075°21'1 9.5
2017-Nov-09 20:00N 39°50' W 075°22'3 5.1
2017-Nov-09 19:30N 39°49' W 075°24'0 0.0
2017-Nov-09 19:00N 39°49' W 075°24'1 2.3
2017-Nov-09 18:30N 39°49' W 075°23'4 9.0
2017-Nov-09 18:01N 39°51' W 075°18'4 7.5
2017-Nov-09 17:30N 39°52' W 075°13'2 3.8
2017-Nov-09 17:00N 39°54' W 075°12'0 0.0
2017-Nov-09 16:30N 39°54' W 075°12'0 0.0
2017-Nov-09 16:01N 39°54' W 075°12'0 0.0
2017-Nov-09 15:31N 39°54' W 075°12'0 0.0
2017-Nov-09 15:01N 39°54' W 075°12'0 0.0
2017-Nov-09 14:30N 39°54' W 075°12'0 0.0
2017-Nov-09 14:00N 39°54' W 075°12'0 0.0
2017-Nov-09 13:30N 39°54' W 075°12'0 0.0
2017-Nov-09 13:01N 39°54' W 075°12'0 0.0
2017-Nov-09 12:30N 39°54' W 075°12'0 0.0
2017-Nov-09 12:01N 39°54' W 075°12'0 0.0
2017-Nov-09 11:31N 39°54' W 075°12'0 0.0
2017-Nov-09 11:00N 39°54' W 075°12'0 0.0
2017-Nov-09 10:30N 39°54' W 075°12'  

Dump ship's entire track history